createdAt,value
2023-02-06T00:00:56.515Z,6.10
2023-02-06T00:03:24.031Z,5.77
2023-02-06T00:06:01.176Z,5.20
2023-02-06T00:08:29.136Z,6.00
2023-02-06T00:10:56.618Z,5.23
2023-02-06T00:13:24.158Z,6.47
2023-02-06T00:15:51.678Z,6.27
2023-02-06T00:18:19.260Z,6.40
2023-02-06T00:20:46.729Z,5.70
2023-02-06T00:23:14.215Z,5.80
2023-02-06T00:25:41.668Z,6.07
2023-02-06T00:28:09.216Z,5.60
2023-02-06T00:30:36.834Z,5.23
2023-02-06T00:33:04.447Z,5.30
2023-02-06T00:35:32.050Z,5.20
2023-02-06T00:37:59.603Z,5.53
2023-02-06T00:40:27.091Z,6.07
2023-02-06T00:42:54.724Z,5.53
2023-02-06T00:45:22.229Z,5.10
2023-02-06T00:47:49.733Z,5.27
2023-02-06T00:50:17.462Z,5.83
2023-02-06T00:52:45.243Z,5.80
2023-02-06T00:55:12.947Z,7.03
2023-02-06T00:57:40.510Z,5.13
2023-02-06T01:00:08.744Z,4.90
2023-02-06T01:02:36.636Z,5.70
2023-02-06T01:05:04.189Z,5.47
2023-02-06T01:07:31.711Z,6.07
2023-02-06T01:09:59.184Z,6.07
2023-02-06T01:12:26.768Z,6.37
2023-02-06T01:14:54.252Z,5.07
2023-02-06T01:17:21.820Z,5.53
2023-02-06T01:19:49.383Z,5.33
2023-02-06T01:22:16.928Z,6.20
2023-02-06T01:24:44.425Z,6.77
2023-02-06T01:27:14.149Z,5.20
2023-02-06T01:29:41.674Z,5.83
2023-02-06T01:32:09.261Z,5.30
2023-02-06T01:34:36.807Z,6.10
2023-02-06T01:37:04.323Z,7.03
2023-02-06T01:39:31.913Z,5.73
2023-02-06T01:41:59.479Z,6.57
2023-02-06T01:44:27.232Z,6.43
2023-02-06T01:46:56.029Z,7.33
2023-02-06T01:49:23.599Z,5.47
2023-02-06T01:51:54.586Z,7.67
2023-02-06T01:54:22.649Z,6.50
2023-02-06T01:56:59.673Z,7.27
2023-02-06T01:59:27.610Z,6.03
2023-02-06T02:01:55.118Z,5.93
2023-02-06T02:04:24.404Z,6.33
2023-02-06T02:07:10.871Z,4.70
2023-02-06T02:09:38.458Z,6.40
2023-02-06T02:12:06.039Z,4.83
2023-02-06T02:14:33.676Z,5.40
2023-02-06T02:17:01.157Z,4.93
2023-02-06T02:19:54.919Z,6.47
2023-02-06T02:22:25.373Z,5.10
2023-02-06T02:25:05.112Z,5.20
2023-02-06T02:27:35.472Z,5.80
2023-02-06T02:30:17.982Z,4.83
2023-02-06T02:32:57.786Z,5.13
2023-02-06T02:35:29.396Z,6.60
2023-02-06T02:38:03.735Z,7.37
2023-02-06T02:40:34.135Z,5.10
2023-02-06T02:43:07.567Z,4.77
2023-02-06T02:45:44.103Z,5.20
2023-02-06T02:48:14.832Z,7.17
2023-02-06T02:50:42.662Z,6.17
2023-02-06T02:53:11.198Z,5.43
2023-02-06T02:55:39.017Z,6.27
2023-02-06T02:58:08.082Z,6.67
2023-02-06T03:00:37.776Z,5.33
2023-02-06T03:03:06.290Z,5.07
2023-02-06T03:05:34.192Z,6.30
2023-02-06T03:08:04.768Z,5.50
2023-02-06T03:10:32.294Z,5.87
2023-02-06T03:13:02.964Z,5.27
2023-02-06T03:15:34.707Z,5.43
2023-02-06T03:18:09.750Z,5.40
2023-02-06T03:20:38.454Z,5.97
2023-02-06T03:23:07.299Z,5.13
2023-02-06T03:25:37.874Z,5.40
2023-02-06T03:28:11.411Z,5.47
2023-02-06T03:30:39.784Z,7.47
2023-02-06T03:33:08.452Z,6.40
2023-02-06T03:35:37.743Z,5.20
2023-02-06T03:38:07.200Z,5.53
2023-02-06T03:40:35.009Z,5.57
2023-02-06T03:43:05.568Z,6.23
2023-02-06T03:45:41.325Z,5.07
2023-02-06T03:48:12.276Z,5.63
2023-02-06T03:50:42.523Z,6.73
2023-02-06T03:53:11.740Z,6.67
2023-02-06T03:55:39.780Z,5.43
2023-02-06T03:58:09.606Z,7.17
2023-02-06T04:00:38.260Z,5.37
2023-02-06T04:03:05.844Z,6.80
2023-02-06T04:05:33.577Z,5.30
2023-02-06T04:08:01.175Z,5.63
2023-02-06T04:10:28.885Z,7.57
2023-02-06T04:12:56.409Z,6.93
2023-02-06T04:15:24.276Z,6.50
2023-02-06T04:17:59.900Z,6.23
2023-02-06T04:20:28.606Z,5.73
2023-02-06T04:22:56.222Z,7.50
2023-02-06T04:25:24.076Z,6.27
2023-02-06T04:27:51.602Z,7.40
2023-02-06T04:30:19.307Z,6.20
2023-02-06T04:32:46.851Z,6.90
2023-02-06T04:35:14.337Z,6.13
2023-02-06T04:37:41.873Z,7.20
2023-02-06T04:40:09.788Z,6.13
2023-02-06T04:42:37.340Z,7.60
2023-02-06T04:45:04.979Z,6.43
2023-02-06T04:47:32.476Z,5.80
2023-02-06T04:50:00.118Z,6.47
2023-02-06T04:52:27.623Z,5.60
2023-02-06T04:54:55.340Z,7.60
2023-02-06T04:57:25.315Z,7.07
2023-02-06T04:59:52.846Z,8.07
2023-02-06T05:02:20.343Z,7.87
2023-02-06T05:04:47.923Z,7.17
2023-02-06T05:07:15.456Z,6.00
2023-02-06T05:09:42.934Z,8.03
2023-02-06T05:12:12.057Z,6.47
2023-02-06T05:14:40.794Z,8.17
2023-02-06T05:17:08.251Z,7.57
2023-02-06T05:19:35.832Z,7.63
2023-02-06T05:22:03.335Z,7.57
2023-02-06T05:24:30.887Z,8.40
2023-02-06T05:26:58.407Z,7.70
2023-02-06T05:29:26.551Z,8.37
2023-02-06T05:31:54.126Z,8.50
2023-02-06T05:34:21.751Z,8.10
2023-02-06T05:36:49.253Z,9.63
2023-02-06T05:39:16.851Z,8.10
2023-02-06T05:41:44.330Z,7.60
2023-02-06T05:44:11.843Z,8.20
2023-02-06T05:46:39.510Z,9.13
2023-02-06T05:49:07.070Z,8.03
2023-02-06T05:51:34.572Z,9.20
2023-02-06T05:54:02.362Z,9.50
2023-02-06T05:56:29.838Z,8.17
2023-02-06T05:58:57.420Z,9.50
2023-02-06T06:01:24.935Z,7.90
2023-02-06T06:03:52.688Z,7.07
2023-02-06T06:06:20.251Z,7.13
2023-02-06T06:08:47.888Z,10.73
2023-02-06T06:11:15.421Z,10.37
2023-02-06T06:13:42.981Z,9.27
2023-02-06T06:16:10.460Z,10.13
2023-02-06T06:18:39.322Z,9.60
2023-02-06T06:21:06.928Z,9.37
2023-02-06T06:23:34.448Z,9.90
2023-02-06T06:26:01.941Z,9.63
2023-02-06T06:28:29.542Z,7.80
2023-02-06T06:31:03.707Z,7.90
2023-02-06T06:33:31.452Z,9.60
2023-02-06T06:35:59.018Z,11.37
2023-02-06T06:38:26.927Z,11.20
2023-02-06T06:40:54.381Z,11.37
2023-02-06T06:43:21.919Z,11.13
2023-02-06T06:45:49.434Z,11.90
2023-02-06T06:48:16.965Z,12.00
2023-02-06T06:50:44.475Z,12.57
2023-02-06T06:53:12.042Z,10.00
2023-02-06T06:55:39.520Z,11.40
2023-02-06T06:58:07.026Z,11.07
2023-02-06T07:00:34.664Z,11.43
2023-02-06T07:03:02.277Z,11.67
2023-02-06T07:05:29.833Z,9.93
2023-02-06T07:07:57.365Z,10.67
2023-02-06T07:10:24.838Z,10.63
2023-02-06T07:12:52.478Z,10.60
2023-02-06T07:15:20.775Z,11.17
2023-02-06T07:17:48.285Z,10.23
2023-02-06T07:20:16.041Z,11.00
2023-02-06T07:22:43.540Z,15.43
2023-02-06T07:25:11.134Z,14.33
2023-02-06T07:27:38.630Z,14.27
2023-02-06T07:30:06.662Z,12.60
2023-02-06T07:32:37.203Z,14.70
2023-02-06T07:35:04.932Z,13.17
2023-02-06T07:37:32.614Z,12.10
2023-02-06T07:40:00.171Z,11.57
2023-02-06T07:42:27.727Z,10.57
2023-02-06T07:44:55.234Z,10.30
2023-02-06T07:47:22.747Z,10.43
2023-02-06T07:49:50.343Z,9.63
2023-02-06T07:52:17.870Z,11.77
2023-02-06T07:54:45.437Z,10.37
2023-02-06T07:57:12.911Z,10.53
2023-02-06T07:59:40.521Z,10.70
2023-02-06T08:02:09.785Z,10.10
2023-02-06T08:04:37.370Z,11.03
2023-02-06T08:07:05.351Z,10.37
2023-02-06T08:09:33.600Z,12.57
2023-02-06T08:12:01.070Z,13.80
2023-02-06T08:14:28.729Z,12.43
2023-02-06T08:16:56.250Z,11.10
2023-02-06T08:19:23.878Z,11.37
2023-02-06T08:21:51.474Z,11.03
2023-02-06T08:24:19.125Z,11.27
2023-02-06T08:26:46.591Z,11.00
2023-02-06T08:29:14.191Z,10.27
2023-02-06T08:31:42.482Z,10.63
2023-02-06T08:34:11.759Z,10.43
2023-02-06T08:36:39.288Z,10.03
2023-02-06T08:39:07.015Z,10.77
2023-02-06T08:41:38.591Z,10.87
2023-02-06T08:44:07.651Z,10.33
2023-02-06T08:46:35.494Z,8.60
2023-02-06T08:49:04.363Z,8.87
2023-02-06T08:51:32.334Z,8.53
2023-02-06T08:54:01.039Z,8.00
2023-02-06T08:56:28.974Z,9.10
2023-02-06T08:58:58.070Z,7.93
2023-02-06T09:01:26.037Z,9.17
2023-02-06T09:03:57.912Z,9.43
2023-02-06T09:06:26.056Z,9.83
2023-02-06T09:08:53.898Z,9.57
2023-02-06T09:11:22.380Z,9.27
2023-02-06T09:13:50.148Z,8.90
2023-02-06T09:16:18.712Z,9.77
2023-02-06T09:18:46.486Z,9.03
2023-02-06T09:21:15.334Z,10.43
2023-02-06T09:23:43.982Z,9.33
2023-02-06T09:26:15.708Z,10.23
2023-02-06T09:28:43.614Z,8.70
2023-02-06T09:31:11.473Z,8.97
2023-02-06T09:33:40.240Z,10.40
2023-02-06T09:36:09.308Z,10.60
2023-02-06T09:38:38.922Z,9.87
2023-02-06T09:41:12.164Z,13.60
2023-02-06T09:43:42.515Z,11.20
2023-02-06T09:46:12.711Z,12.93
2023-02-06T09:48:40.886Z,14.17
2023-02-06T09:51:26.465Z,12.77
2023-02-06T09:54:16.242Z,13.70
2023-02-06T09:56:43.767Z,18.20
2023-02-06T09:59:34.623Z,18.13
2023-02-06T10:02:02.476Z,17.87
2023-02-06T10:04:33.046Z,19.97
2023-02-06T10:07:08.339Z,22.63
2023-02-06T10:09:42.012Z,26.83
2023-02-06T10:12:18.561Z,26.57
2023-02-06T10:14:51.155Z,32.00
2023-02-06T10:17:21.228Z,32.63
2023-02-06T10:19:48.801Z,28.70
2023-02-06T10:22:28.675Z,30.87
2023-02-06T10:25:06.975Z,42.13
2023-02-06T10:27:35.859Z,38.93
2023-02-06T10:30:04.190Z,38.87
2023-02-06T10:32:38.160Z,40.97
2023-02-06T10:35:14.856Z,39.80
2023-02-06T10:38:01.090Z,35.93
2023-02-06T10:40:40.916Z,31.13
2023-02-06T10:43:14.274Z,32.10
2023-02-06T10:45:52.713Z,26.50
2023-02-06T10:48:20.319Z,24.80
2023-02-06T10:51:11.033Z,26.43
2023-02-06T10:53:47.844Z,26.70
2023-02-06T10:56:17.897Z,26.60
2023-02-06T10:59:00.559Z,25.70
2023-02-06T11:01:31.756Z,27.07
2023-02-06T11:04:03.969Z,23.23
2023-02-06T11:06:31.960Z,24.50
2023-02-06T11:08:59.580Z,23.10
2023-02-06T11:11:29.011Z,24.60
2023-02-06T11:13:59.484Z,24.17
2023-02-06T11:16:27.955Z,22.67
2023-02-06T11:18:56.834Z,25.00
2023-02-06T11:21:42.527Z,27.67
2023-02-06T11:24:14.565Z,31.67
2023-02-06T11:26:43.483Z,34.00
2023-02-06T11:29:23.288Z,30.40
2023-02-06T11:32:01.629Z,31.23
2023-02-06T11:34:34.473Z,32.47
2023-02-06T11:37:03.956Z,33.67
2023-02-06T11:39:32.864Z,27.27
2023-02-06T11:42:03.221Z,28.50
2023-02-06T11:44:36.555Z,32.57
2023-02-06T11:47:39.761Z,34.10
2023-02-06T11:50:13.369Z,33.37
2023-02-06T11:52:46.747Z,32.47
2023-02-06T11:55:25.601Z,31.30
2023-02-06T11:58:05.754Z,29.33
2023-02-06T12:00:33.842Z,30.37
2023-02-06T12:03:01.371Z,27.57
2023-02-06T12:05:31.405Z,27.93
2023-02-06T12:07:58.970Z,23.33
2023-02-06T12:10:26.881Z,26.10
2023-02-06T12:12:56.931Z,23.90
2023-02-06T12:15:46.133Z,23.87
2023-02-06T12:18:16.626Z,23.30
2023-02-06T12:20:54.760Z,24.33
2023-02-06T12:23:32.217Z,21.57
2023-02-06T12:26:01.566Z,22.43
2023-02-06T12:28:39.497Z,23.93
2023-02-06T12:31:13.367Z,20.23
2023-02-06T12:33:43.126Z,19.90
2023-02-06T12:36:20.952Z,20.40
2023-02-06T12:38:56.288Z,20.00
2023-02-06T12:41:36.082Z,20.43
2023-02-06T12:44:09.363Z,23.80
2023-02-06T12:46:37.205Z,23.67
2023-02-06T12:49:39.968Z,21.47
2023-02-06T12:52:15.109Z,24.13
2023-02-06T12:54:46.080Z,22.43
2023-02-06T12:57:16.544Z,22.10
2023-02-06T12:59:58.279Z,22.93
2023-02-06T13:02:26.260Z,16.33
2023-02-06T13:04:54.061Z,10.17
2023-02-06T13:07:22.991Z,11.07
2023-02-06T13:09:53.057Z,15.23
2023-02-06T13:12:22.049Z,13.33
2023-02-06T13:14:51.662Z,12.47
2023-02-06T13:17:23.185Z,14.33
2023-02-06T13:19:52.868Z,13.53
2023-02-06T13:22:20.328Z,10.00
2023-02-06T13:24:49.274Z,16.93
2023-02-06T13:27:37.377Z,19.33
2023-02-06T13:30:37.088Z,20.03
2023-02-06T13:33:16.877Z,18.00
2023-02-06T13:35:57.843Z,21.97
2023-02-06T13:38:25.364Z,23.13
2023-02-06T13:41:11.442Z,21.23
2023-02-06T13:43:39.707Z,22.30
2023-02-06T13:46:09.649Z,22.53
2023-02-06T13:48:55.141Z,20.43
2023-02-06T13:51:40.941Z,22.77
2023-02-06T13:54:14.499Z,22.27
2023-02-06T13:56:48.657Z,21.27
2023-02-06T13:59:24.575Z,21.73
2023-02-06T14:02:03.574Z,19.93
2023-02-06T14:04:31.718Z,21.10
2023-02-06T14:06:59.226Z,20.13
2023-02-06T14:09:36.266Z,18.87
2023-02-06T14:12:26.064Z,18.17
2023-02-06T14:15:08.887Z,15.40
2023-02-06T14:17:36.381Z,17.83
2023-02-06T14:20:09.946Z,17.00
2023-02-06T14:22:45.545Z,15.00
2023-02-06T14:25:13.094Z,14.63
2023-02-06T14:27:59.447Z,15.63
2023-02-06T14:30:27.089Z,13.70
2023-02-06T14:33:13.429Z,15.43
2023-02-06T14:35:51.103Z,16.70
2023-02-06T14:38:41.637Z,17.27
2023-02-06T14:41:09.610Z,15.70
2023-02-06T14:43:39.635Z,18.50
2023-02-06T14:46:10.493Z,17.50
2023-02-06T14:48:41.101Z,17.43
2023-02-06T14:51:09.513Z,18.00
2023-02-06T14:53:38.134Z,16.63
2023-02-06T14:56:16.432Z,16.60
2023-02-06T14:58:44.598Z,16.80
2023-02-06T15:01:32.416Z,15.70
2023-02-06T15:04:18.752Z,16.37
2023-02-06T15:06:55.565Z,13.93
2023-02-06T15:09:33.570Z,15.67
2023-02-06T15:12:02.615Z,16.17
2023-02-06T15:14:35.269Z,16.70
2023-02-06T15:17:03.052Z,15.77
2023-02-06T15:19:34.549Z,15.60
2023-02-06T15:22:03.377Z,15.57
2023-02-06T15:24:49.477Z,15.87
2023-02-06T15:27:23.856Z,15.57
2023-02-06T15:29:51.683Z,14.90
2023-02-06T15:32:28.348Z,15.53
2023-02-06T15:34:56.097Z,14.63
2023-02-06T15:37:26.449Z,14.50
2023-02-06T15:39:54.292Z,14.17
2023-02-06T15:42:22.884Z,14.43
2023-02-06T15:44:50.898Z,13.33
2023-02-06T15:47:18.873Z,14.23
2023-02-06T15:49:47.960Z,14.50
2023-02-06T15:52:31.509Z,13.83
2023-02-06T15:54:59.932Z,15.00
2023-02-06T15:57:35.837Z,13.77
2023-02-06T16:00:04.721Z,13.90
2023-02-06T16:02:36.794Z,14.40
2023-02-06T16:05:05.425Z,13.83
2023-02-06T16:07:33.914Z,14.37
2023-02-06T16:10:01.502Z,14.70
2023-02-06T16:12:32.576Z,13.27
2023-02-06T16:15:01.142Z,12.93
2023-02-06T16:17:32.836Z,15.20
2023-02-06T16:20:05.044Z,14.53
2023-02-06T16:22:37.257Z,13.70
2023-02-06T16:25:14.024Z,13.60
2023-02-06T16:27:45.577Z,13.20
2023-02-06T16:30:21.626Z,13.70
2023-02-06T16:32:49.312Z,13.60
2023-02-06T16:35:16.830Z,14.00
2023-02-06T16:37:44.340Z,13.70
2023-02-06T16:40:11.996Z,14.37
2023-02-06T16:42:40.638Z,13.70
2023-02-06T16:45:28.463Z,13.80
2023-02-06T16:47:56.122Z,14.60
2023-02-06T16:50:23.609Z,14.23
2023-02-06T16:52:52.463Z,14.60
2023-02-06T16:55:23.271Z,15.00
2023-02-06T16:57:57.078Z,14.23
2023-02-06T17:00:31.017Z,14.07
2023-02-06T17:02:59.280Z,14.13
2023-02-06T17:05:28.582Z,15.03
2023-02-06T17:07:56.119Z,14.30
2023-02-06T17:10:25.447Z,13.97
2023-02-06T17:12:53.064Z,13.53
2023-02-06T17:15:21.168Z,14.20
2023-02-06T17:17:48.746Z,14.00
2023-02-06T17:20:36.270Z,12.87
2023-02-06T17:23:04.178Z,13.07
2023-02-06T17:25:32.063Z,13.10
2023-02-06T17:28:00.072Z,15.77
2023-02-06T17:30:27.644Z,15.57
2023-02-06T17:32:55.343Z,14.60
2023-02-06T17:35:22.973Z,14.83
2023-02-06T17:37:50.613Z,14.13
2023-02-06T17:40:26.461Z,14.37
2023-02-06T17:42:54.152Z,15.33
2023-02-06T17:45:21.957Z,14.20
2023-02-06T17:47:49.708Z,13.53
2023-02-06T17:50:18.131Z,14.27
2023-02-06T17:52:45.673Z,12.80
2023-02-06T17:55:13.238Z,14.40
2023-02-06T17:57:41.107Z,13.60
2023-02-06T18:00:12.576Z,13.27
2023-02-06T18:02:40.344Z,13.77
2023-02-06T18:05:08.248Z,13.97
2023-02-06T18:07:35.807Z,13.50
2023-02-06T18:10:03.357Z,14.80
2023-02-06T18:12:31.028Z,14.10
2023-02-06T18:14:58.567Z,16.00
2023-02-06T18:17:26.123Z,15.90
2023-02-06T18:19:53.651Z,15.33
2023-02-06T18:22:22.086Z,16.30
2023-02-06T18:24:50.359Z,14.27
2023-02-06T18:27:18.766Z,15.67
2023-02-06T18:29:50.094Z,16.07
2023-02-06T18:32:18.945Z,15.87
2023-02-06T18:34:46.957Z,16.13
2023-02-06T18:37:14.833Z,15.67
2023-02-06T18:39:42.376Z,15.43
2023-02-06T18:42:11.209Z,15.57
2023-02-06T18:44:38.881Z,14.37
2023-02-06T18:47:06.456Z,15.03
2023-02-06T18:49:34.467Z,16.07
2023-02-06T18:52:01.991Z,15.27
2023-02-06T18:54:29.547Z,15.53
2023-02-06T18:56:57.100Z,15.17
2023-02-06T18:59:24.778Z,15.53
2023-02-06T19:01:52.438Z,14.40
2023-02-06T19:04:20.212Z,16.20
2023-02-06T19:06:48.227Z,15.70
2023-02-06T19:09:15.793Z,12.47
2023-02-06T19:11:43.361Z,12.93
2023-02-06T19:14:13.105Z,13.17
2023-02-06T19:16:40.709Z,12.33
2023-02-06T19:19:08.349Z,12.53
2023-02-06T19:21:35.932Z,14.77
2023-02-06T19:24:03.906Z,13.57
2023-02-06T19:26:31.492Z,11.37
2023-02-06T19:28:59.470Z,12.20
2023-02-06T19:31:27.086Z,12.13
2023-02-06T19:33:56.125Z,12.47
2023-02-06T19:36:24.358Z,11.47
2023-02-06T19:38:54.877Z,11.67
2023-02-06T19:41:23.481Z,12.77
2023-02-06T19:43:51.850Z,10.47
2023-02-06T19:46:20.581Z,12.27
2023-02-06T19:48:49.218Z,11.77
2023-02-06T19:51:17.903Z,12.27
2023-02-06T19:53:45.609Z,11.97
2023-02-06T19:56:13.902Z,10.33
2023-02-06T19:58:41.519Z,10.43
2023-02-06T20:01:09.790Z,10.23
2023-02-06T20:03:37.326Z,11.90
2023-02-06T20:06:06.510Z,13.67
2023-02-06T20:08:34.369Z,11.33
2023-02-06T20:11:09.271Z,11.20
2023-02-06T20:13:37.122Z,12.87
2023-02-06T20:16:05.386Z,10.90
2023-02-06T20:18:38.060Z,12.77
2023-02-06T20:21:05.772Z,11.27
2023-02-06T20:23:33.244Z,11.00
2023-02-06T20:26:02.457Z,11.63
2023-02-06T20:28:32.985Z,9.63
2023-02-06T20:31:00.655Z,9.70
2023-02-06T20:33:28.647Z,9.47
2023-02-06T20:35:56.252Z,11.90
2023-02-06T20:38:23.837Z,12.03
2023-02-06T20:40:51.624Z,12.30
2023-02-06T20:43:19.128Z,13.40
2023-02-06T20:45:46.745Z,14.87
2023-02-06T20:48:14.286Z,12.30
2023-02-06T20:50:41.835Z,12.27
2023-02-06T20:53:09.380Z,12.00
2023-02-06T20:55:39.917Z,12.43
2023-02-06T20:58:07.665Z,12.47
2023-02-06T21:00:35.625Z,18.73
2023-02-06T21:03:03.238Z,14.60
2023-02-06T21:05:31.137Z,13.50
2023-02-06T21:07:58.717Z,15.33
2023-02-06T21:10:26.701Z,16.53
2023-02-06T21:12:54.698Z,16.23
2023-02-06T21:15:22.314Z,14.20
2023-02-06T21:17:49.907Z,15.00
2023-02-06T21:20:17.468Z,13.90
2023-02-06T21:22:45.043Z,13.93
2023-02-06T21:25:12.556Z,15.17
2023-02-06T21:27:41.278Z,14.37
2023-02-06T21:30:09.023Z,12.73
2023-02-06T21:32:36.545Z,13.27
2023-02-06T21:35:04.047Z,14.73
2023-02-06T21:37:31.845Z,15.70
2023-02-06T21:39:59.377Z,14.70
2023-02-06T21:42:27.035Z,16.17
2023-02-06T21:44:54.527Z,16.97
2023-02-06T21:47:22.060Z,16.80
2023-02-06T21:49:49.507Z,17.10
2023-02-06T21:52:17.209Z,15.97
2023-02-06T21:54:44.704Z,15.90
2023-02-06T21:57:12.212Z,14.53
2023-02-06T21:59:39.663Z,15.77
2023-02-06T22:02:07.443Z,14.83
2023-02-06T22:04:34.887Z,14.33
2023-02-06T22:07:02.413Z,14.20
2023-02-06T22:09:29.914Z,14.73
2023-02-06T22:11:57.473Z,15.47
2023-02-06T22:14:24.989Z,14.13
2023-02-06T22:16:52.545Z,14.40
2023-02-06T22:19:20.045Z,16.17
2023-02-06T22:21:47.545Z,16.27
2023-02-06T22:24:15.060Z,17.07
2023-02-06T22:26:42.938Z,16.43
2023-02-06T22:29:15.340Z,15.53
2023-02-06T22:31:43.565Z,17.13
2023-02-06T22:34:18.498Z,16.57
2023-02-06T22:36:46.377Z,16.83
2023-02-06T22:39:14.563Z,17.53
2023-02-06T22:41:43.038Z,17.93
2023-02-06T22:44:11.094Z,17.20
2023-02-06T22:46:39.973Z,17.00
2023-02-06T22:49:08.015Z,16.60
2023-02-06T22:51:36.325Z,16.40
2023-02-06T22:54:04.448Z,19.47
2023-02-06T22:56:33.681Z,20.33
2023-02-06T22:59:09.097Z,18.63
2023-02-06T23:01:43.825Z,18.23
2023-02-06T23:04:15.715Z,18.77
2023-02-06T23:06:43.663Z,16.63
2023-02-06T23:09:14.579Z,17.87
2023-02-06T23:11:42.684Z,18.43
2023-02-06T23:14:12.155Z,17.33
2023-02-06T23:16:39.712Z,21.93
2023-02-06T23:19:07.868Z,21.70
2023-02-06T23:21:39.004Z,21.27
2023-02-06T23:24:07.237Z,20.73
2023-02-06T23:26:35.361Z,20.80
2023-02-06T23:29:04.913Z,20.60
2023-02-06T23:31:32.672Z,20.37
2023-02-06T23:34:00.207Z,20.70
2023-02-06T23:36:28.382Z,21.47
2023-02-06T23:38:56.036Z,23.03
2023-02-06T23:41:25.311Z,20.60
2023-02-06T23:43:53.650Z,19.83
2023-02-06T23:46:21.567Z,19.37
2023-02-06T23:48:49.920Z,20.93
2023-02-06T23:51:18.030Z,21.10
2023-02-06T23:53:45.649Z,19.27
2023-02-06T23:56:14.556Z,18.20
2023-02-06T23:58:42.508Z,19.97
